createdAt,value
2024-01-04T00:01:47.972Z,0.10
2024-01-04T00:04:15.637Z,0.30
2024-01-04T00:06:45.431Z,0.00
2024-01-04T00:09:13.525Z,0.10
2024-01-04T00:11:41.300Z,0.00
2024-01-04T00:14:10.114Z,0.08
2024-01-04T00:16:37.942Z,0.00
2024-01-04T00:19:07.345Z,0.00
2024-01-04T00:21:35.369Z,0.10
2024-01-04T00:24:04.642Z,0.00
2024-01-04T00:26:32.382Z,0.03
2024-01-04T00:29:00.245Z,0.10
2024-01-04T00:31:27.910Z,0.20
2024-01-04T00:33:55.839Z,0.05
2024-01-04T00:36:25.329Z,0.10
2024-01-04T00:38:53.028Z,0.20
2024-01-04T00:41:20.766Z,0.20
2024-01-04T00:43:48.549Z,0.00
2024-01-04T00:46:16.493Z,0.00
2024-01-04T00:48:44.436Z,0.00
2024-01-04T00:51:12.378Z,0.10
2024-01-04T00:53:41.550Z,0.00
2024-01-04T00:56:09.639Z,0.00
2024-01-04T00:58:37.412Z,0.00
2024-01-04T01:01:07.976Z,0.00
2024-01-04T01:03:35.744Z,0.00
2024-01-04T01:06:04.110Z,0.00
2024-01-04T01:08:32.007Z,0.00
2024-01-04T01:11:01.152Z,0.00
2024-01-04T01:13:28.851Z,0.05
2024-01-04T01:15:56.572Z,0.00
2024-01-04T01:18:24.516Z,0.00
2024-01-04T01:20:52.369Z,0.00
2024-01-04T01:23:20.197Z,0.10
2024-01-04T01:25:48.000Z,0.10
2024-01-04T01:28:17.844Z,0.00
2024-01-04T01:30:44.584Z,0.10
2024-01-04T01:33:12.486Z,0.00
2024-01-04T01:35:40.382Z,0.00
2024-01-04T01:38:08.124Z,0.00
2024-01-04T01:40:35.906Z,0.03
2024-01-04T01:43:03.721Z,0.00
2024-01-04T01:45:32.953Z,0.00
2024-01-04T01:48:00.970Z,0.40
2024-01-04T01:50:29.002Z,0.10
2024-01-04T01:52:56.949Z,0.00
2024-01-04T01:55:26.220Z,0.20
2024-01-04T01:57:55.138Z,0.10
2024-01-04T02:00:22.996Z,0.00
2024-01-04T02:02:52.317Z,0.38
2024-01-04T02:05:20.314Z,0.00
2024-01-04T02:07:48.312Z,0.00
2024-01-04T02:10:16.063Z,0.22
2024-01-04T02:12:43.815Z,0.20
2024-01-04T02:15:11.768Z,0.00
2024-01-04T02:17:41.051Z,0.00
2024-01-04T02:20:10.821Z,0.00
2024-01-04T02:22:39.048Z,0.10
2024-01-04T02:25:08.431Z,0.00
2024-01-04T02:27:36.099Z,0.00
2024-01-04T02:30:04.039Z,0.10
2024-01-04T02:32:32.071Z,0.00
2024-01-04T02:35:00.091Z,0.00
2024-01-04T02:37:27.970Z,0.00
2024-01-04T02:39:55.773Z,0.00
2024-01-04T02:42:24.973Z,0.00
2024-01-04T02:44:52.814Z,0.00
2024-01-04T02:47:21.027Z,0.00
2024-01-04T02:49:49.118Z,0.00
2024-01-04T02:52:17.489Z,0.00
2024-01-04T02:54:45.417Z,0.00
2024-01-04T02:57:13.220Z,0.00
2024-01-04T02:59:42.406Z,0.00
2024-01-04T03:02:10.265Z,0.00
2024-01-04T03:04:41.945Z,0.05
2024-01-04T03:07:09.873Z,0.10
2024-01-04T03:09:38.206Z,0.30
2024-01-04T03:12:06.451Z,0.10
2024-01-04T03:14:34.446Z,0.00
2024-01-04T03:17:04.303Z,0.00
2024-01-04T03:19:32.102Z,0.00
2024-01-04T03:21:59.786Z,0.00
2024-01-04T03:24:27.573Z,0.00
2024-01-04T03:26:55.340Z,0.10
2024-01-04T03:29:23.015Z,0.00
2024-01-04T03:31:50.926Z,0.10
2024-01-04T03:34:20.213Z,0.15
2024-01-04T03:36:48.253Z,0.28
2024-01-04T03:39:18.945Z,0.10
2024-01-04T03:41:46.823Z,0.13
2024-01-04T03:44:14.563Z,0.70
2024-01-04T03:46:42.312Z,0.45
2024-01-04T03:49:11.070Z,0.20
2024-01-04T03:51:40.325Z,0.20
2024-01-04T03:54:08.402Z,0.08
2024-01-04T03:56:36.142Z,0.20
2024-01-04T03:59:03.872Z,0.08
2024-01-04T04:01:31.646Z,0.03
2024-01-04T04:03:59.697Z,0.32
2024-01-04T04:06:27.560Z,0.00
2024-01-04T04:08:56.841Z,0.08
2024-01-04T04:11:24.645Z,0.00
2024-01-04T04:13:52.508Z,0.00
2024-01-04T04:16:20.445Z,0.00
2024-01-04T04:18:48.259Z,0.20
2024-01-04T04:21:20.394Z,0.13
2024-01-04T04:23:51.255Z,0.00
2024-01-04T04:26:20.696Z,0.00
2024-01-04T04:28:48.602Z,0.20
2024-01-04T04:31:16.533Z,0.00
2024-01-04T04:33:46.034Z,0.10
2024-01-04T04:36:14.131Z,0.10
2024-01-04T04:38:42.294Z,0.57
2024-01-04T04:41:10.089Z,0.00
2024-01-04T04:43:39.861Z,0.00
2024-01-04T04:46:11.499Z,0.00
2024-01-04T04:48:39.892Z,0.00
2024-01-04T04:51:08.281Z,0.20
2024-01-04T04:53:36.104Z,0.00
2024-01-04T04:56:03.961Z,0.03
2024-01-04T04:58:31.947Z,0.38
2024-01-04T05:01:01.508Z,0.10
2024-01-04T05:03:29.920Z,0.00
2024-01-04T05:05:58.098Z,0.20
2024-01-04T05:08:26.069Z,0.00
2024-01-04T05:10:54.058Z,0.10
2024-01-04T05:13:21.734Z,0.00
2024-01-04T05:15:50.315Z,0.00
2024-01-04T05:18:19.862Z,0.00
2024-01-04T05:20:47.880Z,0.10
2024-01-04T05:23:15.664Z,0.10
2024-01-04T05:25:43.523Z,0.25
2024-01-04T05:28:11.515Z,0.00
2024-01-04T05:30:39.547Z,0.22
2024-01-04T05:33:07.470Z,0.10
2024-01-04T05:35:36.795Z,0.25
2024-01-04T05:38:04.597Z,0.00
2024-01-04T05:40:32.289Z,0.08
2024-01-04T05:43:00.239Z,0.20
2024-01-04T05:45:28.294Z,0.10
2024-01-04T05:47:56.133Z,0.00
2024-01-04T05:50:23.923Z,0.00
2024-01-04T05:52:54.149Z,0.20
2024-01-04T05:55:22.108Z,0.00
2024-01-04T05:57:49.861Z,0.00
2024-01-04T06:00:18.895Z,0.00
2024-01-04T06:02:48.293Z,0.17
2024-01-04T06:05:16.672Z,0.08
2024-01-04T06:07:44.704Z,0.10
2024-01-04T06:10:14.035Z,0.03
2024-01-04T06:12:42.259Z,0.30
2024-01-04T06:15:10.741Z,0.00
2024-01-04T06:17:38.712Z,0.10
2024-01-04T06:20:06.808Z,0.10
2024-01-04T06:22:34.572Z,0.10
2024-01-04T06:25:02.291Z,0.00
2024-01-04T06:27:31.467Z,0.10
2024-01-04T06:29:59.295Z,0.22
2024-01-04T06:32:27.101Z,0.20
2024-01-04T06:34:54.899Z,0.20
2024-01-04T06:37:22.815Z,0.10
2024-01-04T06:39:51.653Z,0.03
2024-01-04T06:42:20.884Z,0.00
2024-01-04T06:44:50.038Z,0.00
2024-01-04T06:47:17.812Z,0.28
2024-01-04T06:49:45.574Z,0.52
2024-01-04T06:52:13.378Z,0.00
2024-01-04T06:54:41.120Z,0.13
2024-01-04T06:57:09.068Z,0.05
2024-01-04T06:59:36.986Z,0.13
2024-01-04T07:02:07.299Z,0.00
2024-01-04T07:04:35.501Z,0.13
2024-01-04T07:07:03.251Z,0.10
2024-01-04T07:09:31.255Z,0.10
2024-01-04T07:11:59.099Z,0.08
2024-01-04T07:14:26.927Z,0.10
2024-01-04T07:16:54.662Z,0.30
2024-01-04T07:19:25.409Z,0.28
2024-01-04T07:21:53.582Z,0.00
2024-01-04T07:24:21.676Z,0.22
2024-01-04T07:26:50.033Z,0.30
2024-01-04T07:29:17.780Z,0.30
2024-01-04T07:31:45.461Z,0.20
2024-01-04T07:34:13.489Z,0.20
2024-01-04T07:36:43.192Z,0.17
2024-01-04T07:39:11.574Z,0.10
2024-01-04T07:41:40.095Z,0.05
2024-01-04T07:44:07.932Z,0.20
2024-01-04T07:46:35.779Z,0.10
2024-01-04T07:49:05.452Z,0.00
2024-01-04T07:51:33.542Z,0.30
2024-01-04T07:54:02.679Z,0.03
2024-01-04T07:56:30.848Z,0.00
2024-01-04T07:58:58.801Z,0.30
2024-01-04T08:01:26.864Z,0.10
2024-01-04T08:03:54.656Z,0.10
2024-01-04T08:06:23.132Z,0.40
2024-01-04T08:08:51.846Z,0.10
2024-01-04T08:11:21.332Z,0.20
2024-01-04T08:13:49.044Z,0.35
2024-01-04T08:16:17.088Z,0.10
2024-01-04T08:18:44.977Z,0.32
2024-01-04T08:21:13.230Z,0.10
2024-01-04T08:23:41.538Z,0.10
2024-01-04T08:26:09.534Z,0.30
2024-01-04T08:28:39.617Z,0.03
2024-01-04T08:31:08.706Z,0.15
2024-01-04T08:33:37.171Z,0.10
2024-01-04T08:36:06.006Z,0.20
2024-01-04T08:38:34.144Z,0.03
2024-01-04T08:41:02.104Z,0.10
2024-01-04T08:43:30.534Z,0.40
2024-01-04T08:46:00.452Z,0.00
2024-01-04T08:48:28.329Z,0.20
2024-01-04T08:50:56.577Z,0.20
2024-01-04T08:53:24.437Z,0.00
2024-01-04T08:55:52.497Z,0.17
2024-01-04T08:58:20.203Z,0.43
2024-01-04T09:00:49.064Z,0.00
2024-01-04T09:03:19.662Z,0.03
2024-01-04T09:05:48.720Z,0.00
2024-01-04T09:08:16.896Z,0.03
2024-01-04T09:10:45.059Z,0.08
2024-01-04T09:13:12.946Z,0.20
2024-01-04T09:15:40.889Z,0.00
2024-01-04T09:18:15.095Z,0.30
2024-01-04T09:20:44.464Z,0.10
2024-01-04T09:23:12.191Z,0.20
2024-01-04T09:25:39.921Z,0.00
2024-01-04T09:28:07.910Z,0.05
2024-01-04T09:30:35.896Z,0.00
2024-01-04T09:33:03.817Z,0.70
2024-01-04T09:35:31.621Z,0.00
2024-01-04T09:38:00.836Z,0.20
2024-01-04T09:40:28.573Z,0.00
2024-01-04T09:42:59.788Z,0.00
2024-01-04T09:45:30.859Z,0.20
2024-01-04T09:47:59.279Z,0.22
2024-01-04T09:50:27.233Z,0.13
2024-01-04T09:52:57.335Z,0.17
2024-01-04T09:55:26.690Z,0.25
2024-01-04T09:57:54.651Z,0.10
2024-01-04T10:00:22.800Z,0.20
2024-01-04T10:02:51.289Z,0.00
2024-01-04T10:05:20.321Z,0.10
2024-01-04T10:07:53.271Z,0.10
2024-01-04T10:10:22.910Z,0.05
2024-01-04T10:12:52.835Z,0.10
2024-01-04T10:15:20.544Z,0.20
2024-01-04T10:17:49.082Z,0.10
2024-01-04T10:20:17.097Z,0.30
2024-01-04T10:22:44.863Z,0.40
2024-01-04T10:25:13.671Z,0.28
2024-01-04T10:27:41.720Z,0.22
2024-01-04T10:30:11.263Z,0.30
2024-01-04T10:32:40.949Z,0.47
2024-01-04T10:35:10.284Z,0.77
2024-01-04T10:37:38.423Z,0.10
2024-01-04T10:40:07.001Z,0.08
2024-01-04T10:42:35.002Z,0.50
2024-01-04T10:45:02.958Z,0.15
2024-01-04T10:47:32.226Z,0.20
2024-01-04T10:50:01.466Z,0.28
2024-01-04T10:52:32.814Z,0.20
2024-01-04T10:55:01.777Z,0.15
2024-01-04T10:57:33.123Z,0.30
2024-01-04T11:00:08.648Z,0.38
2024-01-04T11:02:39.887Z,0.15
2024-01-04T11:05:10.452Z,0.28
2024-01-04T11:07:40.064Z,0.30
2024-01-04T11:10:10.506Z,0.35
2024-01-04T11:12:39.951Z,0.10
2024-01-04T11:15:08.123Z,0.30
2024-01-04T11:17:48.678Z,0.20
2024-01-04T11:20:19.977Z,0.15
2024-01-04T11:23:00.885Z,0.20
2024-01-04T11:25:36.365Z,0.30
2024-01-04T11:28:05.817Z,0.20
2024-01-04T11:30:45.475Z,0.15
2024-01-04T11:33:29.198Z,0.10
2024-01-04T11:36:20.035Z,0.13
2024-01-04T11:38:48.556Z,0.10
2024-01-04T11:41:16.387Z,0.40
2024-01-04T11:43:45.376Z,0.10
2024-01-04T11:46:20.618Z,0.10
2024-01-04T11:48:56.980Z,0.20
2024-01-04T11:51:35.352Z,0.20
2024-01-04T11:54:03.879Z,0.17
2024-01-04T11:56:31.732Z,0.22
2024-01-04T11:59:09.729Z,0.10
2024-01-04T12:01:41.303Z,0.25
2024-01-04T12:04:12.404Z,0.30
2024-01-04T12:06:40.976Z,1.27
2024-01-04T12:09:09.040Z,0.40
2024-01-04T12:11:39.403Z,0.25
2024-01-04T12:14:08.275Z,0.32
2024-01-04T12:16:36.189Z,0.28
2024-01-04T12:19:04.507Z,0.40
2024-01-04T12:21:34.736Z,0.00
2024-01-04T12:24:04.218Z,0.17
2024-01-04T12:26:32.634Z,0.55
2024-01-04T12:29:04.024Z,0.38
2024-01-04T12:31:33.400Z,0.13
2024-01-04T12:34:01.381Z,0.20
2024-01-04T12:36:29.515Z,0.40
2024-01-04T12:39:08.383Z,0.43
2024-01-04T12:41:38.394Z,0.32
2024-01-04T12:44:06.731Z,0.00
2024-01-04T12:46:34.484Z,0.20
2024-01-04T12:49:10.365Z,0.10
2024-01-04T12:51:40.428Z,0.00
2024-01-04T12:54:10.245Z,0.10
2024-01-04T12:56:38.077Z,0.00
2024-01-04T12:59:06.117Z,0.28
2024-01-04T13:01:34.315Z,0.05
2024-01-04T13:04:02.567Z,0.10
2024-01-04T13:09:19.367Z,0.10
2024-01-04T13:11:47.540Z,0.10
2024-01-04T13:14:15.602Z,0.20
2024-01-04T13:16:44.546Z,0.13
2024-01-04T13:19:16.499Z,0.08
2024-01-04T13:21:44.562Z,0.00
2024-01-04T13:24:12.379Z,0.10
2024-01-04T13:26:44.721Z,0.17
2024-01-04T13:29:14.030Z,0.28
2024-01-04T13:31:41.771Z,0.00
2024-01-04T13:34:10.698Z,0.00
2024-01-04T13:36:38.763Z,0.10
2024-01-04T13:39:06.953Z,0.00
2024-01-04T13:41:35.420Z,0.10
2024-01-04T13:44:05.086Z,0.03
2024-01-04T13:46:33.672Z,0.10
2024-01-04T13:49:01.864Z,0.13
2024-01-04T13:51:29.909Z,0.20
2024-01-04T13:53:58.367Z,0.05
2024-01-04T13:56:26.102Z,0.03
2024-01-04T13:58:54.436Z,0.38
2024-01-04T14:01:45.357Z,0.30
2024-01-04T14:04:14.122Z,0.15
2024-01-04T14:06:42.347Z,0.20
2024-01-04T14:09:10.376Z,0.10
2024-01-04T14:11:38.276Z,0.10
2024-01-04T14:14:07.122Z,0.10
2024-01-04T14:16:37.153Z,0.10
2024-01-04T14:19:05.303Z,0.13
2024-01-04T14:21:35.375Z,0.10
2024-01-04T14:24:04.279Z,0.03
2024-01-04T14:26:32.276Z,0.15
2024-01-04T14:29:00.031Z,0.20
2024-01-04T14:31:29.294Z,0.15
2024-01-04T14:33:59.048Z,0.00
2024-01-04T14:36:27.135Z,0.20
2024-01-04T14:38:54.961Z,0.13
2024-01-04T14:41:22.995Z,0.15
2024-01-04T14:43:51.048Z,0.15
2024-01-04T14:46:23.293Z,0.10
2024-01-04T14:48:51.196Z,0.10
2024-01-04T14:51:28.327Z,0.20
2024-01-04T14:53:56.147Z,0.20
2024-01-04T14:56:24.647Z,0.10
2024-01-04T14:58:52.459Z,0.10
2024-01-04T15:01:23.487Z,0.00
2024-01-04T15:03:53.967Z,0.10
2024-01-04T15:06:22.215Z,0.13
2024-01-04T15:08:52.004Z,0.20
2024-01-04T15:11:20.414Z,0.10
2024-01-04T15:13:48.406Z,0.20
2024-01-04T15:16:16.176Z,0.30
2024-01-04T15:18:44.076Z,0.20
2024-01-04T15:21:12.012Z,0.57
2024-01-04T15:23:40.836Z,0.38
2024-01-04T15:26:10.343Z,0.40
2024-01-04T15:28:38.147Z,0.30
2024-01-04T15:31:06.410Z,0.22
2024-01-04T15:33:34.439Z,0.20
2024-01-04T15:36:02.776Z,0.10
2024-01-04T15:38:30.737Z,0.10
2024-01-04T15:40:58.484Z,0.10
2024-01-04T15:43:30.143Z,0.30
2024-01-04T15:45:57.905Z,0.10
2024-01-04T15:48:26.754Z,0.22
2024-01-04T15:50:54.653Z,0.40
2024-01-04T15:53:22.477Z,0.20
2024-01-04T15:55:50.276Z,0.20
2024-01-04T15:58:18.064Z,0.20
2024-01-04T16:00:47.452Z,0.00
2024-01-04T16:03:16.524Z,0.10
2024-01-04T16:05:44.562Z,0.20
2024-01-04T16:08:12.341Z,0.65
2024-01-04T16:10:40.106Z,0.30
2024-01-04T16:13:08.241Z,0.20
2024-01-04T16:15:36.784Z,0.30
2024-01-04T16:18:06.690Z,0.47
2024-01-04T16:20:37.608Z,0.17
2024-01-04T16:23:06.835Z,0.25
2024-01-04T16:25:34.814Z,0.17
2024-01-04T16:28:02.855Z,0.20
2024-01-04T16:30:30.693Z,0.05
2024-01-04T16:32:58.676Z,0.20
2024-01-04T16:35:28.323Z,0.10
2024-01-04T16:37:56.515Z,0.25
2024-01-04T16:40:24.486Z,0.20
2024-01-04T16:42:52.284Z,0.20
2024-01-04T16:45:20.233Z,0.30
2024-01-04T16:47:48.212Z,0.10
2024-01-04T16:50:16.099Z,0.20
2024-01-04T16:52:45.561Z,0.20
2024-01-04T16:55:13.367Z,0.13
2024-01-04T16:57:42.911Z,0.30
2024-01-04T17:00:11.536Z,0.40
2024-01-04T17:02:39.379Z,0.32
2024-01-04T17:05:07.440Z,0.40
2024-01-04T17:07:35.536Z,0.57
2024-01-04T17:10:05.216Z,0.20
2024-01-04T17:12:33.292Z,0.40
2024-01-04T17:15:01.470Z,0.25
2024-01-04T17:17:29.620Z,0.20
2024-01-04T17:20:03.437Z,0.20
2024-01-04T17:22:33.540Z,0.32
2024-01-04T17:25:01.816Z,0.10
2024-01-04T17:27:31.652Z,0.22
2024-01-04T17:30:01.419Z,0.20
2024-01-04T17:32:30.213Z,0.30
2024-01-04T17:34:58.326Z,0.32
2024-01-04T17:37:26.158Z,0.20
2024-01-04T17:39:53.944Z,0.40
2024-01-04T17:42:21.844Z,0.32
2024-01-04T17:44:51.093Z,0.38
2024-01-04T17:47:18.857Z,0.17
2024-01-04T17:49:48.548Z,0.30
2024-01-04T17:52:19.827Z,0.20
2024-01-04T17:54:48.239Z,0.47
2024-01-04T17:57:18.010Z,0.40
2024-01-04T17:59:46.245Z,0.10
2024-01-04T18:02:30.521Z,0.32
2024-01-04T18:04:59.864Z,0.20
2024-01-04T18:07:27.743Z,0.40
2024-01-04T18:09:55.810Z,0.10
2024-01-04T18:12:23.761Z,0.47
2024-01-04T18:14:51.705Z,0.20
2024-01-04T18:17:19.609Z,0.30
2024-01-04T18:19:47.762Z,0.20
2024-01-04T18:22:17.469Z,0.20
2024-01-04T18:24:45.257Z,0.30
2024-01-04T18:27:13.527Z,0.35
2024-01-04T18:29:41.528Z,0.38
2024-01-04T18:32:09.605Z,0.20
2024-01-04T18:34:37.577Z,0.35
2024-01-04T18:37:07.826Z,0.40
2024-01-04T18:39:37.110Z,0.20
2024-01-04T18:42:05.404Z,0.30
2024-01-04T18:44:33.312Z,0.20
2024-01-04T18:47:01.888Z,0.45
2024-01-04T18:49:29.847Z,0.20
2024-01-04T18:51:58.015Z,0.22
2024-01-04T18:54:25.857Z,0.55
2024-01-04T18:56:55.186Z,0.30
2024-01-04T18:59:23.036Z,0.20
2024-01-04T19:01:50.899Z,0.32
2024-01-04T19:04:18.814Z,0.30
2024-01-04T19:06:46.713Z,0.30
2024-01-04T19:09:14.693Z,0.40
2024-01-04T19:11:42.958Z,0.30
2024-01-04T19:14:12.704Z,0.40
2024-01-04T19:16:42.951Z,0.55
2024-01-04T19:19:11.305Z,0.60
2024-01-04T19:21:39.671Z,0.45
2024-01-04T19:24:08.199Z,0.45
2024-01-04T19:26:36.178Z,0.43
2024-01-04T19:29:04.121Z,0.60
2024-01-04T19:31:33.378Z,0.50
2024-01-04T19:34:02.048Z,0.40
2024-01-04T19:36:30.885Z,0.50
2024-01-04T19:38:58.725Z,0.50
2024-01-04T19:41:26.544Z,0.35
2024-01-04T19:43:54.447Z,0.45
2024-01-04T19:46:22.321Z,0.52
2024-01-04T19:48:52.777Z,0.50
2024-01-04T19:51:22.721Z,0.65
2024-01-04T19:53:50.912Z,0.60
2024-01-04T19:56:18.790Z,0.40
2024-01-04T19:58:47.540Z,0.45
2024-01-04T20:01:15.497Z,0.50
2024-01-04T20:03:44.628Z,0.55
2024-01-04T20:06:13.882Z,0.43
2024-01-04T20:08:41.703Z,0.70
2024-01-04T20:11:09.863Z,0.60
2024-01-04T20:13:38.440Z,0.77
2024-01-04T20:16:06.597Z,0.40
2024-01-04T20:18:34.620Z,0.77
2024-01-04T20:21:03.258Z,0.50
2024-01-04T20:23:35.278Z,0.52
2024-01-04T20:26:04.464Z,0.68
2024-01-04T20:28:32.298Z,0.50
2024-01-04T20:31:00.216Z,0.77
2024-01-04T20:33:28.164Z,0.50
2024-01-04T20:35:56.430Z,0.68
2024-01-04T20:38:24.198Z,1.00
2024-01-04T20:40:53.337Z,0.77
2024-01-04T20:43:22.629Z,0.50
2024-01-04T20:45:50.349Z,0.68
2024-01-04T20:48:18.448Z,0.45
2024-01-04T20:50:46.508Z,0.50
2024-01-04T20:53:14.333Z,0.50
2024-01-04T20:55:43.974Z,0.40
2024-01-04T20:58:14.306Z,1.02
2024-01-04T21:00:42.715Z,0.47
2024-01-04T21:03:11.570Z,0.70
2024-01-04T21:05:39.474Z,0.75
2024-01-04T21:08:07.727Z,0.65
2024-01-04T21:10:35.505Z,0.60
2024-01-04T21:13:03.274Z,0.57
2024-01-04T21:15:32.779Z,0.43
2024-01-04T21:18:02.433Z,0.50
2024-01-04T21:20:30.348Z,0.50
2024-01-04T21:23:06.113Z,0.40
2024-01-04T21:25:33.995Z,1.00
2024-01-04T21:28:01.780Z,0.73
2024-01-04T21:30:29.611Z,0.63
2024-01-04T21:32:58.899Z,0.70
2024-01-04T21:35:28.795Z,1.02
2024-01-04T21:37:56.523Z,0.95
2024-01-04T21:40:24.369Z,0.82
2024-01-04T21:42:52.065Z,0.80
2024-01-04T21:45:20.023Z,0.88
2024-01-04T21:47:48.247Z,1.02
2024-01-04T21:50:18.078Z,0.50
2024-01-04T21:52:45.898Z,0.88
2024-01-04T21:55:15.282Z,0.60
2024-01-04T21:57:43.281Z,0.70
2024-01-04T22:00:11.732Z,0.40
2024-01-04T22:02:40.974Z,0.50
2024-01-04T22:05:09.121Z,0.50
2024-01-04T22:07:39.505Z,0.60
2024-01-04T22:10:15.271Z,0.70
2024-01-04T22:12:50.658Z,0.52
2024-01-04T22:15:18.747Z,0.50
2024-01-04T22:17:46.519Z,0.82
2024-01-04T22:20:15.193Z,0.60
2024-01-04T22:22:44.428Z,0.68
2024-01-04T22:25:12.204Z,0.60
2024-01-04T22:27:40.008Z,0.70
2024-01-04T22:30:09.108Z,0.43
2024-01-04T22:32:37.083Z,0.50
2024-01-04T22:35:05.156Z,0.45
2024-01-04T22:37:32.965Z,0.28
2024-01-04T22:40:02.246Z,0.40
2024-01-04T22:42:30.055Z,0.40
2024-01-04T22:44:58.013Z,0.30
2024-01-04T22:47:25.887Z,0.40
2024-01-04T22:49:54.725Z,0.50
2024-01-04T22:52:22.615Z,0.40
2024-01-04T22:54:50.372Z,0.30
2024-01-04T22:57:19.780Z,0.45
2024-01-04T22:59:47.766Z,0.70
2024-01-04T23:02:15.704Z,0.40
2024-01-04T23:04:46.130Z,0.40
2024-01-04T23:07:14.123Z,0.40
2024-01-04T23:09:42.406Z,0.30
2024-01-04T23:12:10.528Z,0.40
2024-01-04T23:14:39.914Z,0.50
2024-01-04T23:17:07.711Z,0.38
2024-01-04T23:19:35.559Z,0.40
2024-01-04T23:22:03.420Z,0.40
2024-01-04T23:24:31.229Z,0.60
2024-01-04T23:26:59.176Z,0.40
2024-01-04T23:29:26.986Z,0.40
2024-01-04T23:31:56.255Z,0.60
2024-01-04T23:34:25.728Z,0.40
2024-01-04T23:36:53.493Z,0.63
2024-01-04T23:39:21.418Z,0.80
2024-01-04T23:41:50.329Z,0.60
2024-01-04T23:44:20.012Z,0.40
2024-01-04T23:46:47.814Z,0.68
2024-01-04T23:49:17.116Z,0.60
2024-01-04T23:51:45.605Z,0.60
2024-01-04T23:54:14.936Z,0.60
2024-01-04T23:56:43.223Z,0.70
2024-01-04T23:59:11.241Z,0.80
